Time;durP1;ratioP1;P1;durP2;ratioP2;P2;SDS_P1;SDS_P2;PMS_P1;PMS_P2;Temp;Humidity;BMP_temperature;BMP_pressure;BME280_temperature;BME280_humidity;BME280_pressure;Samples;Min_cycle;Max_cycle;Signal;HPM_P1;HPM_P2
2022/06/14 00:03:01;;;;;;;12.98;2.90;;;;;;;;;;5009463;28;99555;-72
2022/06/14 00:05:27;;;;;;;11.00;2.60;;;;;;;;;;5011032;28;98667;-73
2022/06/14 00:07:53;;;;;;;15.43;2.55;;;;;;;;;;5028465;28;99916;-72
2022/06/14 00:10:20;;;;;;;11.60;2.90;;;;;;;;;;5033253;28;100701;-72
2022/06/14 00:12:46;;;;;;;10.07;2.65;;;;;;;;;;5030639;28;100116;-73
2022/06/14 00:15:13;;;;;;;8.40;2.50;;;;;;;;;;5031060;28;99522;-73
2022/06/14 00:17:39;;;;;;;10.35;2.50;;;;;;;;;;5029944;28;98864;-72
2022/06/14 00:20:06;;;;;;;16.33;3.22;;;;;;;;;;5031082;28;100005;-72
2022/06/14 00:22:33;;;;;;;13.07;3.38;;;;;;;;;;5029872;28;101443;-72
2022/06/14 00:25:00;;;;;;;7.70;2.58;;;;;;;;;;5029422;28;98633;-72
2022/06/14 00:27:26;;;;;;;9.07;2.42;;;;;;;;;;5030431;28;98966;-72
2022/06/14 00:29:53;;;;;;;10.73;2.90;;;;;;;;;;5031991;28;99342;-72
2022/06/14 00:32:19;;;;;;;6.93;3.03;;;;;;;;;;5030230;27;99313;-73
2022/06/14 00:34:46;;;;;;;10.93;3.10;;;;;;;;;;5029493;27;100626;-71
2022/06/14 00:37:14;;;;;;;11.88;2.90;;;;;;;;;;5010512;28;99421;-71
2022/06/14 00:39:40;;;;;;;11.75;2.63;;;;;;;;;;5009555;28;99140;-73
2022/06/14 00:42:15;;;;;;;7.30;2.85;;;;;;;;;;5029914;28;100653;-73
2022/06/14 00:44:41;;;;;;;9.00;2.47;;;;;;;;;;5029150;28;98527;-73
2022/06/14 00:47:14;;;;;;;12.95;2.95;;;;;;;;;;5018565;28;99922;-71
2022/06/14 00:49:44;;;;;;;7.82;2.95;;;;;;;;;;4989713;28;100218;-73
2022/06/14 00:52:16;;;;;;;23.05;3.25;;;;;;;;;;4992884;28;98617;-72
2022/06/14 00:54:44;;;;;;;11.43;2.67;;;;;;;;;;4989624;28;100560;-71
2022/06/14 00:57:18;;;;;;;10.10;2.67;;;;;;;;;;4994639;28;98549;-72
2022/06/14 00:59:47;;;;;;;13.10;3.10;;;;;;;;;;5009181;28;99924;-72
2022/06/14 01:02:16;;;;;;;11.98;2.55;;;;;;;;;;5009837;28;100532;-72
2022/06/14 01:04:43;;;;;;;12.57;2.90;;;;;;;;;;5010243;28;97818;-72
2022/06/14 01:07:13;;;;;;;6.30;2.42;;;;;;;;;;5009259;28;98921;-72
2022/06/14 01:09:44;;;;;;;12.15;3.08;;;;;;;;;;5008029;28;99334;-72
2022/06/14 01:12:13;;;;;;;13.18;4.43;;;;;;;;;;5009387;28;99275;-72
2022/06/14 01:14:53;;;;;;;6.13;2.50;;;;;;;;;;5011773;28;100066;-72
2022/06/14 01:17:20;;;;;;;8.25;2.50;;;;;;;;;;5002323;28;98627;-72
2022/06/14 01:19:47;;;;;;;8.00;2.75;;;;;;;;;;4989013;28;99106;-72
2022/06/14 01:22:13;;;;;;;11.57;2.70;;;;;;;;;;4988482;28;100522;-72
2022/06/14 01:24:41;;;;;;;7.63;2.50;;;;;;;;;;4989278;28;98543;-72
2022/06/14 01:27:09;;;;;;;10.52;2.60;;;;;;;;;;4989152;28;100110;-72
2022/06/14 01:29:36;;;;;;;12.15;3.22;;;;;;;;;;4989178;28;98774;-72
2022/06/14 01:32:04;;;;;;;11.00;2.78;;;;;;;;;;5010264;28;98613;-72
2022/06/14 01:34:32;;;;;;;9.27;2.53;;;;;;;;;;5028449;28;99823;-72
2022/06/14 01:37:03;;;;;;;27.13;3.95;;;;;;;;;;5032282;28;100962;-72
2022/06/14 01:39:29;;;;;;;7.40;2.58;;;;;;;;;;5029473;28;100657;-72
2022/06/14 01:42:05;;;;;;;6.70;2.63;;;;;;;;;;5028334;28;100215;-72
2022/06/14 01:44:31;;;;;;;17.80;3.15;;;;;;;;;;5028962;28;99143;-72
2022/06/14 01:46:59;;;;;;;9.18;2.30;;;;;;;;;;5029596;27;98505;-72
2022/06/14 01:52:55;;;;;;;11.95;3.08;;;;;;;;;;5029529;27;99308;-72
2022/06/14 01:55:27;;;;;;;10.37;2.50;;;;;;;;;;5029021;28;99915;-72
2022/06/14 01:57:59;;;;;;;8.82;3.33;;;;;;;;;;5028955;28;100456;-72
2022/06/14 02:00:30;;;;;;;16.40;3.53;;;;;;;;;;5032436;28;98565;-72
2022/06/14 02:05:48;;;;;;;16.63;3.10;;;;;;;;;;5010425;27;98563;-72
2022/06/14 02:08:20;;;;;;;9.40;2.47;;;;;;;;;;5009244;28;99874;-72
2022/06/14 02:10:52;;;;;;;10.93;3.03;;;;;;;;;;5007768;28;100298;-72
2022/06/14 02:13:19;;;;;;;;;;;;;;;;;;5009807;28;98535;-72
2022/06/14 02:15:51;;;;;;;8.10;2.72;;;;;;;;;;5009258;28;127669;-72
2022/06/14 02:18:24;;;;;;;8.07;2.70;;;;;;;;;;5007957;28;99471;-72
2022/06/14 02:20:51;;;;;;;10.55;3.50;;;;;;;;;;5010756;28;97812;-72
2022/06/14 02:23:19;;;;;;;9.00;2.50;;;;;;;;;;5015235;28;99278;-72
2022/06/14 02:25:48;;;;;;;7.97;3.00;;;;;;;;;;5012132;28;98516;-72
2022/06/14 02:28:25;;;;;;;7.90;2.65;;;;;;;;;;5012006;28;100067;-72
2022/06/14 02:30:57;;;;;;;10.63;3.60;;;;;;;;;;5011088;28;100175;-72
2022/06/14 02:33:26;;;;;;;6.60;3.53;;;;;;;;;;5012185;28;98556;-72
2022/06/14 02:35:57;;;;;;;10.20;3.58;;;;;;;;;;5012216;28;100214;-72
2022/06/14 02:38:47;;;;;;;12.32;2.67;;;;;;;;;;5011301;28;99618;-72
2022/06/14 02:41:19;;;;;;;12.10;3.75;;;;;;;;;;5006111;28;98625;-72
2022/06/14 02:43:50;;;;;;;10.40;2.90;;;;;;;;;;5014402;28;99727;-72
2022/06/14 02:46:32;;;;;;;5.18;2.65;;;;;;;;;;5011930;28;97909;-72
2022/06/14 02:49:15;;;;;;;15.13;3.25;;;;;;;;;;5012157;28;99598;-71
2022/06/14 02:51:45;;;;;;;3.38;2.88;;;;;;;;;;5010622;28;100136;-72
2022/06/14 02:54:14;;;;;;;12.18;3.15;;;;;;;;;;5011814;28;99275;-72
2022/06/14 02:56:47;;;;;;;5.38;2.88;;;;;;;;;;5012154;28;99985;-72
2022/06/14 02:59:13;;;;;;;;;;;;;;;;;;5011212;28;99741;-72
2022/06/14 03:01:45;;;;;;;6.75;3.05;;;;;;;;;;5011967;28;116788;-72
2022/06/14 03:04:28;;;;;;;6.75;2.80;;;;;;;;;;5012821;28;100862;-72
2022/06/14 03:06:58;;;;;;;4.88;2.95;;;;;;;;;;5013823;28;99634;-72
2022/06/14 03:09:27;;;;;;;7.85;3.03;;;;;;;;;;5011913;28;99867;-72
2022/06/14 03:11:56;;;;;;;9.95;3.28;;;;;;;;;;5011773;28;100037;-72
2022/06/14 03:14:42;;;;;;;6.30;2.88;;;;;;;;;;5011403;28;98734;-72
2022/06/14 03:17:16;;;;;;;6.05;2.58;;;;;;;;;;5008542;28;99144;-72
2022/06/14 03:19:51;;;;;;;7.65;2.92;;;;;;;;;;5005307;28;100200;-72
2022/06/14 03:22:24;;;;;;;7.78;3.03;;;;;;;;;;5011082;28;98538;-72
2022/06/14 03:24:59;;;;;;;14.05;2.83;;;;;;;;;;5011253;28;100316;-72
2022/06/14 03:27:30;;;;;;;12.02;4.03;;;;;;;;;;5010546;28;99492;-72
2022/06/14 03:29:57;;;;;;;7.70;3.42;;;;;;;;;;5015806;28;99617;-72
2022/06/14 03:32:35;;;;;;;9.73;4.03;;;;;;;;;;5010247;28;99901;-72
2022/06/14 03:35:07;;;;;;;6.80;2.70;;;;;;;;;;5010772;28;99075;-72
2022/06/14 03:37:33;;;;;;;5.68;2.65;;;;;;;;;;5011442;28;100275;-72
2022/06/14 03:40:03;;;;;;;5.53;2.60;;;;;;;;;;5010960;28;100462;-72
2022/06/14 03:42:29;;;;;;;12.52;3.55;;;;;;;;;;5010400;28;98601;-72
2022/06/14 03:44:57;;;;;;;9.32;3.30;;;;;;;;;;5010399;28;99283;-72
2022/06/14 03:47:27;;;;;;;7.57;3.10;;;;;;;;;;5015815;28;100680;-72
2022/06/14 03:50:00;;;;;;;6.97;2.95;;;;;;;;;;5030489;28;99506;-71
2022/06/14 03:52:32;;;;;;;7.22;2.97;;;;;;;;;;5034147;28;100560;-71
2022/06/14 03:55:11;;;;;;;8.57;2.75;;;;;;;;;;5030330;28;98501;-71
2022/06/14 03:57:43;;;;;;;7.32;2.95;;;;;;;;;;5030845;28;99940;-71
2022/06/14 04:00:09;;;;;;;11.23;3.13;;;;;;;;;;5030656;28;100366;-71
2022/06/14 04:02:54;;;;;;;9.95;3.45;;;;;;;;;;5030286;28;97876;-71
2022/06/14 04:05:33;;;;;;;8.65;3.38;;;;;;;;;;5017640;28;98512;-71
2022/06/14 04:08:05;;;;;;;7.82;3.13;;;;;;;;;;5010646;28;100410;-71
2022/06/14 04:10:35;;;;;;;9.40;2.70;;;;;;;;;;5009074;28;99947;-71
2022/06/14 04:13:17;;;;;;;6.00;2.80;;;;;;;;;;5010795;28;101716;-71
2022/06/14 04:15:47;;;;;;;4.83;2.77;;;;;;;;;;5012737;28;100452;-71
2022/06/14 04:18:35;;;;;;;6.60;3.13;;;;;;;;;;5010893;28;99853;-71
2022/06/14 04:21:13;;;;;;;9.55;3.50;;;;;;;;;;5010718;28;99627;-71
2022/06/14 04:23:48;;;;;;;6.60;3.00;;;;;;;;;;5009498;28;98978;-71
2022/06/14 04:26:20;;;;;;;10.32;3.13;;;;;;;;;;5010843;28;100227;-72
2022/06/14 04:28:57;;;;;;;10.13;3.35;;;;;;;;;;5010330;28;99599;-72
2022/06/14 04:31:23;;;;;;;8.05;2.58;;;;;;;;;;5009786;28;98539;-71
2022/06/14 04:33:56;;;;;;;7.55;3.58;;;;;;;;;;5009915;28;99856;-72
2022/06/14 04:36:28;;;;;;;10.63;3.15;;;;;;;;;;5009568;28;100817;-71
2022/06/14 04:38:56;;;;;;;6.32;2.95;;;;;;;;;;5012805;28;98639;-71
2022/06/14 04:41:25;;;;;;;10.02;3.42;;;;;;;;;;5010069;28;100201;-71
2022/06/14 04:43:54;;;;;;;6.57;3.08;;;;;;;;;;5007579;28;98561;-72
2022/06/14 04:46:33;;;;;;;6.45;3.28;;;;;;;;;;5010342;28;99952;-72
2022/06/14 04:49:06;;;;;;;6.55;3.17;;;;;;;;;;4997848;28;100659;-72
2022/06/14 04:51:38;;;;;;;15.40;4.13;;;;;;;;;;4989481;28;98533;-72
2022/06/14 04:54:05;;;;;;;6.53;3.35;;;;;;;;;;4990893;28;99316;-71
2022/06/14 04:56:38;;;;;;;10.02;3.45;;;;;;;;;;5004659;28;99284;-71
2022/06/14 04:59:13;;;;;;;11.45;3.45;;;;;;;;;;5012884;28;98558;-72
2022/06/14 05:01:53;;;;;;;8.60;3.15;;;;;;;;;;5008956;28;99956;-72
2022/06/14 05:04:29;;;;;;;7.40;2.90;;;;;;;;;;5010330;28;98604;-72
2022/06/14 05:06:59;;;;;;;7.30;3.00;;;;;;;;;;5009163;28;99954;-72
2022/06/14 05:09:30;;;;;;;4.85;2.35;;;;;;;;;;5009673;28;99281;-72
2022/06/14 05:11:59;;;;;;;5.30;3.00;;;;;;;;;;5009963;28;99426;-72
2022/06/14 05:14:29;;;;;;;10.60;4.43;;;;;;;;;;5010017;28;100048;-72
2022/06/14 05:17:07;;;;;;;7.32;3.63;;;;;;;;;;5009416;28;99596;-72
2022/06/14 05:19:37;;;;;;;5.85;3.00;;;;;;;;;;4997447;28;98348;-72
2022/06/14 05:22:22;;;;;;;11.52;2.90;;;;;;;;;;4992660;28;98573;-71
2022/06/14 05:24:49;;;;;;;6.47;3.45;;;;;;;;;;5002417;28;98797;-72
2022/06/14 05:27:22;;;;;;;10.90;3.15;;;;;;;;;;5008404;28;100298;-72
2022/06/14 05:30:07;;;;;;;4.68;2.80;;;;;;;;;;5009477;28;100186;-72
2022/06/14 05:32:34;;;;;;;8.25;2.90;;;;;;;;;;5009450;28;98716;-72
2022/06/14 05:35:12;;;;;;;9.40;3.38;;;;;;;;;;5001569;28;99151;-72
2022/06/14 05:37:58;;;;;;;6.25;3.05;;;;;;;;;;4988031;28;99617;-72
2022/06/14 05:40:34;;;;;;;9.65;3.13;;;;;;;;;;5000129;28;99499;-72
2022/06/14 05:43:06;;;;;;;6.97;2.60;;;;;;;;;;5018780;28;100010;-73
2022/06/14 05:45:37;;;;;;;8.13;2.78;;;;;;;;;;4995039;28;99983;-72
2022/06/14 05:48:05;;;;;;;10.10;3.58;;;;;;;;;;4989411;28;98615;-72
2022/06/14 05:50:36;;;;;;;7.47;3.28;;;;;;;;;;4990730;28;100212;-72
2022/06/14 05:53:06;;;;;;;8.55;3.13;;;;;;;;;;4988377;28;99305;-73
2022/06/14 05:55:34;;;;;;;4.85;2.60;;;;;;;;;;4989664;28;101184;-73
2022/06/14 05:58:13;;;;;;;6.03;2.60;;;;;;;;;;4998492;28;100428;-76
2022/06/14 06:00:39;;;;;;;7.72;2.83;;;;;;;;;;4997600;28;98842;-73
2022/06/14 06:03:17;;;;;;;5.88;2.55;;;;;;;;;;5017564;28;99156;-73
2022/06/14 06:05:59;;;;;;;11.25;3.65;;;;;;;;;;4998910;28;100264;-73
2022/06/14 06:08:40;;;;;;;6.65;2.90;;;;;;;;;;5008816;28;100122;-73
2022/06/14 06:11:10;;;;;;;9.80;3.67;;;;;;;;;;4993672;28;99236;-73
2022/06/14 06:13:40;;;;;;;5.85;2.58;;;;;;;;;;4990433;28;98639;-73
2022/06/14 06:16:14;;;;;;;6.28;2.60;;;;;;;;;;4989999;28;99378;-73
2022/06/14 06:18:43;;;;;;;7.97;3.08;;;;;;;;;;4992045;27;99897;-73
2022/06/14 06:21:19;;;;;;;9.20;3.05;;;;;;;;;;4994027;28;98553;-73
2022/06/14 06:23:51;;;;;;;12.27;2.75;;;;;;;;;;4998519;28;102142;-73
2022/06/14 06:26:19;;;;;;;5.53;2.70;;;;;;;;;;5014203;28;100197;-73
2022/06/14 06:28:51;;;;;;;9.82;3.17;;;;;;;;;;5006321;28;98999;-73
2022/06/14 06:31:18;;;;;;;5.50;2.50;;;;;;;;;;5008155;28;99071;-73
2022/06/14 06:33:47;;;;;;;7.22;2.47;;;;;;;;;;5004331;28;98939;-73
2022/06/14 06:36:14;;;;;;;12.98;3.20;;;;;;;;;;5001493;28;99197;-74
2022/06/14 06:39:00;;;;;;;8.27;3.25;;;;;;;;;;4997132;28;99618;-73
2022/06/14 06:44:35;;;;;;;12.32;2.80;;;;;;;;;;4995244;28;99403;-73
2022/06/14 06:47:13;;;;;;;10.90;2.42;;;;;;;;;;4990543;28;100106;-73
2022/06/14 06:49:49;;;;;;;9.82;3.28;;;;;;;;;;4993230;28;99217;-72
2022/06/14 06:52:19;;;;;;;5.75;2.60;;;;;;;;;;5020126;28;99176;-72
2022/06/14 06:54:48;;;;;;;8.20;2.70;;;;;;;;;;5023509;27;99020;-72
2022/06/14 06:57:17;;;;;;;5.25;2.13;;;;;;;;;;5028497;28;99982;-71
2022/06/14 06:59:53;;;;;;;5.60;2.63;;;;;;;;;;5020941;27;98895;-71
2022/06/14 07:02:23;;;;;;;10.57;2.25;;;;;;;;;;4993342;27;97922;-71
2022/06/14 07:05:05;;;;;;;7.43;2.10;;;;;;;;;;4991707;28;99290;-71
2022/06/14 07:07:45;;;;;;;6.20;2.05;;;;;;;;;;5005262;28;100261;-72
2022/06/14 07:10:20;;;;;;;7.05;1.77;;;;;;;;;;4992073;27;99278;-72
2022/06/14 07:12:53;;;;;;;3.97;2.08;;;;;;;;;;4998939;28;101124;-71
2022/06/14 07:15:23;;;;;;;4.82;2.28;;;;;;;;;;4994693;28;99569;-72
2022/06/14 07:17:53;;;;;;;3.17;1.77;;;;;;;;;;4988599;28;100635;-73
2022/06/14 07:20:44;;;;;;;3.60;1.67;;;;;;;;;;4991606;28;99899;-73
2022/06/14 07:23:14;;;;;;;5.55;1.98;;;;;;;;;;4988547;28;98890;-73
2022/06/14 07:25:51;;;;;;;5.45;1.85;;;;;;;;;;5001797;28;99294;-72
2022/06/14 07:28:36;;;;;;;4.40;1.70;;;;;;;;;;4997472;28;98500;-72
2022/06/14 07:31:05;;;;;;;4.72;1.80;;;;;;;;;;5000485;28;99865;-72
2022/06/14 07:33:32;;;;;;;6.97;1.65;;;;;;;;;;4999093;28;99913;-72
2022/06/14 07:36:00;;;;;;;5.22;1.67;;;;;;;;;;5004709;28;101057;-72
2022/06/14 07:38:33;;;;;;;3.50;1.40;;;;;;;;;;4990085;28;100486;-73
2022/06/14 07:41:03;;;;;;;4.68;1.92;;;;;;;;;;4988780;28;99846;-73
2022/06/14 07:43:38;;;;;;;4.72;1.60;;;;;;;;;;4991663;28;100501;-70
2022/06/14 07:46:08;;;;;;;3.58;1.85;;;;;;;;;;4990072;28;100352;-70
2022/06/14 07:48:39;;;;;;;3.72;1.65;;;;;;;;;;4988560;27;99170;-70
2022/06/14 07:51:24;;;;;;;2.13;1.45;;;;;;;;;;5000700;28;100458;-72
2022/06/14 07:53:55;;;;;;;3.88;1.73;;;;;;;;;;5004443;28;99272;-73
2022/06/14 07:56:32;;;;;;;3.65;1.80;;;;;;;;;;4997381;28;99489;-73
2022/06/14 07:59:05;;;;;;;4.78;1.95;;;;;;;;;;4990903;28;98526;-73
2022/06/14 08:01:39;;;;;;;7.63;1.88;;;;;;;;;;4992547;28;99282;-73
2022/06/14 08:04:09;;;;;;;9.95;1.88;;;;;;;;;;4990913;28;98776;-73
2022/06/14 08:06:41;;;;;;;4.28;1.98;;;;;;;;;;4995631;28;99369;-73
2022/06/14 08:09:17;;;;;;;5.78;2.00;;;;;;;;;;5009185;28;99352;-72
2022/06/14 08:11:44;;;;;;;6.18;2.10;;;;;;;;;;5010497;28;98884;-73
2022/06/14 08:14:14;;;;;;;4.80;2.20;;;;;;;;;;5010636;28;98948;-73
2022/06/14 08:16:42;;;;;;;3.20;1.60;;;;;;;;;;5007443;28;99674;-72
2022/06/14 08:19:11;;;;;;;3.63;1.58;;;;;;;;;;5011294;28;98212;-72
2022/06/14 08:21:47;;;;;;;4.00;1.90;;;;;;;;;;5000599;28;99668;-73
2022/06/14 08:24:16;;;;;;;2.80;1.50;;;;;;;;;;4993420;28;100676;-73
2022/06/14 08:26:43;;;;;;;5.97;1.70;;;;;;;;;;4989422;28;99502;-73
2022/06/14 08:29:19;;;;;;;3.83;1.60;;;;;;;;;;4989818;28;99516;-72
2022/06/14 08:31:49;;;;;;;5.97;1.60;;;;;;;;;;4991337;28;98592;-72
2022/06/14 08:34:23;;;;;;;5.80;1.65;;;;;;;;;;4991043;28;98994;-72
2022/06/14 08:37:12;;;;;;;5.53;2.00;;;;;;;;;;4989083;28;99514;-73
2022/06/14 08:39:45;;;;;;;3.53;1.80;;;;;;;;;;4987214;28;98889;-72
2022/06/14 08:42:30;;;;;;;6.68;1.70;;;;;;;;;;4990108;28;99010;-72
2022/06/14 08:45:05;;;;;;;5.20;1.90;;;;;;;;;;4989711;28;99881;-72
2022/06/14 08:47:50;;;;;;;4.60;1.70;;;;;;;;;;4995298;27;98546;-73
2022/06/14 08:50:35;;;;;;;4.25;2.20;;;;;;;;;;4989257;28;99499;-72
2022/06/14 08:53:01;;;;;;;3.10;2.00;;;;;;;;;;4989922;28;99309;-72
2022/06/14 08:56:00;;;;;;;4.10;2.10;;;;;;;;;;4990339;28;99850;-72
2022/06/14 08:58:26;;;;;;;2.72;1.65;;;;;;;;;;4955075;28;99540;-72
2022/06/14 09:01:09;;;;;;;2.67;1.60;;;;;;;;;;4990434;28;98669;-72
2022/06/14 09:03:50;;;;;;;2.55;1.50;;;;;;;;;;4989676;28;99189;-72
2022/06/14 09:06:26;;;;;;;4.45;2.10;;;;;;;;;;4989127;28;100089;-71
2022/06/14 09:08:53;;;;;;;5.53;1.77;;;;;;;;;;4993475;28;98463;-72
2022/06/14 09:11:29;;;;;;;3.50;1.60;;;;;;;;;;4990262;28;99457;-72
2022/06/14 09:14:05;;;;;;;8.07;2.50;;;;;;;;;;4989936;28;98508;-72
2022/06/14 09:16:35;;;;;;;5.65;1.45;;;;;;;;;;5003896;28;99158;-73
2022/06/14 09:19:15;;;;;;;5.28;1.65;;;;;;;;;;4993799;28;101450;-72
2022/06/14 09:22:00;;;;;;;6.57;2.10;;;;;;;;;;4992515;28;100609;-73
2022/06/14 09:24:43;;;;;;;4.80;1.80;;;;;;;;;;5010047;27;99329;-72
2022/06/14 09:27:13;;;;;;;4.05;1.95;;;;;;;;;;5008857;28;100665;-72
2022/06/14 09:29:41;;;;;;;;;;;;;;;;;;5009131;28;99053;-73
2022/06/14 09:32:08;;;;;;;2.40;1.55;;;;;;;;;;5012642;28;129014;-72
2022/06/14 09:34:45;;;;;;;4.43;1.67;;;;;;;;;;4991226;28;100323;-71
2022/06/14 09:37:14;;;;;;;2.53;1.27;;;;;;;;;;4985589;28;99171;-72
2022/06/14 09:39:49;;;;;;;1.70;1.23;;;;;;;;;;4986981;28;100569;-72
2022/06/14 09:42:18;;;;;;;4.47;1.65;;;;;;;;;;4990943;28;99888;-72
2022/06/14 09:45:03;;;;;;;1.30;1.20;;;;;;;;;;4986263;28;100197;-72
2022/06/14 09:47:40;;;;;;;4.50;1.60;;;;;;;;;;4991964;28;100405;-72
2022/06/14 09:50:21;;;;;;;1.88;1.13;;;;;;;;;;4988195;28;98681;-73
2022/06/14 09:53:20;;;;;;;2.30;1.45;;;;;;;;;;4994567;28;99112;-72
2022/06/14 09:55:49;;;;;;;1.65;1.40;;;;;;;;;;4977151;28;99340;-72
2022/06/14 09:58:26;;;;;;;3.63;1.40;;;;;;;;;;4990391;28;99363;-72
2022/06/14 10:01:12;;;;;;;4.65;1.30;;;;;;;;;;4985551;27;99978;-72
2022/06/14 10:03:55;;;;;;;1.58;1.00;;;;;;;;;;4989765;28;99722;-72
2022/06/14 10:06:42;;;;;;;1.85;1.50;;;;;;;;;;4986682;28;100423;-72
2022/06/14 10:09:21;;;;;;;1.50;1.15;;;;;;;;;;4990345;28;100099;-72
2022/06/14 10:11:58;;;;;;;4.45;1.27;;;;;;;;;;5000621;28;99376;-72
2022/06/14 10:14:43;;;;;;;2.15;1.08;;;;;;;;;;4988816;28;100036;-72
2022/06/14 10:17:12;;;;;;;1.42;1.10;;;;;;;;;;4988366;28;100046;-72
2022/06/14 10:19:56;;;;;;;4.63;1.30;;;;;;;;;;4990850;28;98618;-72
2022/06/14 10:22:43;;;;;;;1.85;1.27;;;;;;;;;;4990033;28;99697;-71
2022/06/14 10:25:18;;;;;;;2.08;1.27;;;;;;;;;;4989945;28;98538;-72
2022/06/14 10:28:12;;;;;;;4.25;1.15;;;;;;;;;;4989718;28;99400;-72
2022/06/14 10:30:48;;;;;;;1.33;1.23;;;;;;;;;;4988202;28;98736;-72
2022/06/14 10:33:20;;;;;;;2.83;1.50;;;;;;;;;;4987538;28;98622;-72
2022/06/14 10:36:07;;;;;;;1.75;1.20;;;;;;;;;;4988317;28;99228;-72
2022/06/14 10:38:52;;;;;;;2.88;1.80;;;;;;;;;;4987529;28;102908;-71
2022/06/14 10:41:23;;;;;;;1.50;1.30;;;;;;;;;;4990326;28;99050;-72
2022/06/14 10:43:56;;;;;;;4.93;1.30;;;;;;;;;;4992816;28;100228;-71
2022/06/14 10:46:24;;;;;;;4.55;1.38;;;;;;;;;;4993467;28;99941;-71
2022/06/14 10:49:16;;;;;;;2.08;1.30;;;;;;;;;;5001696;28;100275;-71
2022/06/14 10:52:01;;;;;;;5.15;1.85;;;;;;;;;;4993413;28;100212;-71
2022/06/14 10:54:42;;;;;;;6.32;1.80;;;;;;;;;;4999266;28;100135;-71
2022/06/14 10:57:14;;;;;;;10.07;2.30;;;;;;;;;;4998457;28;99176;-71
2022/06/14 10:59:46;;;;;;;2.45;1.50;;;;;;;;;;4989317;28;101650;-70
2022/06/14 11:02:28;;;;;;;3.30;1.52;;;;;;;;;;4995076;28;99456;-71
2022/06/14 11:04:55;;;;;;;4.50;1.80;;;;;;;;;;4995271;28;99761;-71
2022/06/14 11:07:38;;;;;;;5.30;2.27;;;;;;;;;;4997101;28;99364;-71
2022/06/14 11:10:40;;;;;;;7.20;1.60;;;;;;;;;;4994308;28;99488;-71
2022/06/14 11:13:12;;;;;;;2.63;1.40;;;;;;;;;;4923296;28;100378;-71
2022/06/14 11:15:41;;;;;;;5.60;1.38;;;;;;;;;;4988982;28;98628;-71
2022/06/14 11:18:31;;;;;;;2.55;1.65;;;;;;;;;;4998168;28;100263;-71
2022/06/14 11:21:00;;;;;;;2.60;1.50;;;;;;;;;;4991671;28;99782;-71
2022/06/14 11:23:33;;;;;;;2.47;1.13;;;;;;;;;;4997812;28;101889;-71
2022/06/14 11:26:06;;;;;;;3.30;1.25;;;;;;;;;;4987021;28;99552;-71
2022/06/14 11:28:42;;;;;;;4.05;1.40;;;;;;;;;;4998852;28;99338;-71
2022/06/14 11:31:37;;;;;;;2.22;1.50;;;;;;;;;;4992960;28;101092;-71
2022/06/14 11:34:31;;;;;;;1.58;1.17;;;;;;;;;;4991698;28;99342;-71
2022/06/14 11:37:14;;;;;;;4.45;1.70;;;;;;;;;;4994390;28;98624;-71
2022/06/14 11:39:48;;;;;;;2.07;1.27;;;;;;;;;;4994182;28;99211;-71
2022/06/14 11:42:22;;;;;;;5.57;1.27;;;;;;;;;;4990782;28;100870;-71
2022/06/14 11:44:58;;;;;;;1.63;1.15;;;;;;;;;;4990383;28;100467;-71
2022/06/14 11:47:31;;;;;;;6.88;1.27;;;;;;;;;;4998193;28;99951;-71
2022/06/14 11:50:16;;;;;;;0.85;0.85;;;;;;;;;;4996008;28;98796;-71
2022/06/14 11:52:58;;;;;;;3.95;1.10;;;;;;;;;;4997464;28;100330;-71
2022/06/14 11:55:31;;;;;;;2.33;1.50;;;;;;;;;;5004738;28;99411;-71
2022/06/14 11:57:57;;;;;;;1.77;1.13;;;;;;;;;;5001999;28;99837;-71
2022/06/14 12:00:23;;;;;;;1.17;1.00;;;;;;;;;;4994638;28;100803;-71
2022/06/14 12:03:23;;;;;;;3.53;1.48;;;;;;;;;;5005355;28;99515;-71
2022/06/14 12:05:56;;;;;;;2.03;1.50;;;;;;;;;;4990213;28;98541;-71
2022/06/14 12:08:44;;;;;;;2.50;1.42;;;;;;;;;;4999116;28;99132;-71
2022/06/14 12:11:22;;;;;;;1.83;1.20;;;;;;;;;;4991924;28;100087;-71
2022/06/14 12:14:05;;;;;;;4.15;1.63;;;;;;;;;;4998241;28;98623;-71
2022/06/14 12:16:32;;;;;;;2.47;1.23;;;;;;;;;;5012925;28;99909;-70
2022/06/14 12:19:12;;;;;;;1.50;1.33;;;;;;;;;;5009388;28;98592;-71
2022/06/14 12:21:38;;;;;;;5.90;1.95;;;;;;;;;;5006960;28;100016;-71
2022/06/14 12:24:06;;;;;;;5.80;1.20;;;;;;;;;;4992387;28;100152;-71
2022/06/14 12:26:37;;;;;;;2.00;1.05;;;;;;;;;;4998660;28;100011;-71
2022/06/14 12:29:07;;;;;;;6.10;1.50;;;;;;;;;;4999562;28;99875;-71
2022/06/14 12:31:53;;;;;;;2.40;1.65;;;;;;;;;;4989452;28;99323;-71
2022/06/14 12:34:20;;;;;;;4.95;1.25;;;;;;;;;;4989979;28;98998;-71
2022/06/14 12:36:58;;;;;;;2.28;1.40;;;;;;;;;;4990137;28;98852;-71
2022/06/14 12:39:32;;;;;;;1.48;1.23;;;;;;;;;;5001844;28;99628;-71
2022/06/14 12:42:05;;;;;;;2.65;1.75;;;;;;;;;;4990235;27;100642;-71
2022/06/14 12:44:38;;;;;;;2.75;1.30;;;;;;;;;;4990233;28;99344;-71
2022/06/14 12:47:04;;;;;;;;;;;;;;;;;;5000059;28;98549;-70
2022/06/14 12:49:36;;;;;;;4.55;1.48;;;;;;;;;;5005049;28;128818;-71
2022/06/14 12:52:18;;;;;;;2.03;1.45;;;;;;;;;;4989886;28;99486;-70
2022/06/14 12:55:00;;;;;;;1.08;0.98;;;;;;;;;;4990111;28;100012;-71
2022/06/14 12:57:38;;;;;;;2.85;1.40;;;;;;;;;;4990064;28;98926;-71
2022/06/14 13:00:04;;;;;;;2.05;1.45;;;;;;;;;;4988341;28;99777;-71
2022/06/14 13:02:36;;;;;;;1.83;1.38;;;;;;;;;;5005321;28;98564;-70
2022/06/14 13:05:09;;;;;;;5.10;1.40;;;;;;;;;;5002707;28;100221;-71
2022/06/14 13:07:55;;;;;;;1.77;1.42;;;;;;;;;;5002297;28;101877;-71
2022/06/14 13:10:28;;;;;;;1.02;1.02;;;;;;;;;;4997439;28;98882;-71
2022/06/14 13:12:54;;;;;;;1.80;1.20;;;;;;;;;;4993219;28;100195;-71
2022/06/14 13:15:27;;;;;;;1.85;1.40;;;;;;;;;;5003929;28;99339;-71
2022/06/14 13:18:08;;;;;;;1.50;1.17;;;;;;;;;;4998381;28;99704;-70
2022/06/14 13:20:53;;;;;;;1.60;1.50;;;;;;;;;;4997101;28;100247;-71
2022/06/14 13:23:23;;;;;;;2.80;1.40;;;;;;;;;;4997057;28;100069;-71
2022/06/14 13:25:49;;;;;;;2.03;1.20;;;;;;;;;;5004484;28;99084;-71
2022/06/14 13:28:37;;;;;;;2.55;1.30;;;;;;;;;;4998233;28;98673;-71
2022/06/14 13:31:22;;;;;;;3.63;1.63;;;;;;;;;;4992502;28;99710;-71
2022/06/14 13:33:49;;;;;;;2.85;1.40;;;;;;;;;;4996255;28;99769;-71
2022/06/14 13:36:40;;;;;;;5.93;1.80;;;;;;;;;;4995847;28;98989;-71
2022/06/14 13:39:25;;;;;;;3.13;1.63;;;;;;;;;;5000190;28;100392;-69
2022/06/14 13:42:01;;;;;;;1.42;1.30;;;;;;;;;;4998212;28;102007;-70
2022/06/14 13:44:31;;;;;;;1.98;1.33;;;;;;;;;;4998819;28;99067;-70
2022/06/14 13:47:01;;;;;;;1.48;1.20;;;;;;;;;;4998887;28;99836;-70
2022/06/14 13:49:35;;;;;;;4.78;1.60;;;;;;;;;;4993213;28;99392;-70
2022/06/14 13:52:10;;;;;;;1.20;0.93;;;;;;;;;;4997593;28;99322;-70
2022/06/14 13:54:40;;;;;;;1.63;1.52;;;;;;;;;;4998936;28;99485;-70
2022/06/14 13:57:28;;;;;;;2.22;1.20;;;;;;;;;;4996192;28;99169;-70
2022/06/14 13:59:57;;;;;;;2.92;1.13;;;;;;;;;;4993106;28;100078;-71
2022/06/14 14:02:35;;;;;;;2.33;1.48;;;;;;;;;;4990313;28;99510;-70
2022/06/14 14:05:14;;;;;;;2.13;1.38;;;;;;;;;;5002789;28;99526;-70
2022/06/14 14:07:51;;;;;;;2.65;1.35;;;;;;;;;;4999818;28;99642;-70
2022/06/14 14:10:17;;;;;;;5.50;1.20;;;;;;;;;;5004593;28;100228;-70
2022/06/14 14:12:54;;;;;;;1.40;1.27;;;;;;;;;;4997149;28;99905;-70
2022/06/14 14:15:31;;;;;;;1.73;1.35;;;;;;;;;;4990572;28;100203;-70
2022/06/14 14:18:12;;;;;;;3.47;1.65;;;;;;;;;;4992207;28;98740;-70
2022/06/14 14:20:45;;;;;;;1.45;1.10;;;;;;;;;;4991435;28;99851;-70
2022/06/14 14:23:11;;;;;;;5.00;1.73;;;;;;;;;;4995569;28;100482;-70
2022/06/14 14:25:39;;;;;;;3.28;1.67;;;;;;;;;;4991790;28;99363;-70
2022/06/14 14:28:15;;;;;;;3.67;1.70;;;;;;;;;;4989540;28;100090;-70
2022/06/14 14:30:50;;;;;;;3.30;1.95;;;;;;;;;;4991155;28;99627;-71
2022/06/14 14:33:38;;;;;;;3.53;1.30;;;;;;;;;;4993070;28;99377;-71
2022/06/14 14:36:15;;;;;;;3.50;1.60;;;;;;;;;;4985514;28;99512;-70
2022/06/14 14:38:44;;;;;;;3.22;1.60;;;;;;;;;;4990155;28;100225;-70
2022/06/14 14:41:41;;;;;;;1.45;1.35;;;;;;;;;;4994389;28;99702;-70
2022/06/14 14:44:07;;;;;;;4.63;1.83;;;;;;;;;;4992615;28;99298;-70
2022/06/14 14:46:35;;;;;;;2.85;1.70;;;;;;;;;;4998808;28;100056;-70
2022/06/14 14:49:40;;;;;;;3.55;1.85;;;;;;;;;;4997589;27;100015;-71
2022/06/14 14:52:12;;;;;;;7.97;1.83;;;;;;;;;;4967972;28;98628;-71
2022/06/14 14:54:38;;;;;;;;;;;;;;;;;;4968291;28;98681;-71
2022/06/14 14:57:16;;;;;;;9.07;2.03;;;;;;;;;;4981951;28;129703;-71
2022/06/14 14:59:42;;;;;;;5.35;1.70;;;;;;;;;;4999331;28;100214;-71
2022/06/14 15:05:23;;;;;;;9.30;1.75;;;;;;;;;;4991956;28;101439;-71
2022/06/14 15:07:54;;;;;;;4.13;1.95;;;;;;;;;;4996329;28;98700;-71
2022/06/14 15:10:25;;;;;;;4.72;2.30;;;;;;;;;;4992931;28;100052;-71
2022/06/14 15:12:53;;;;;;;2.58;1.65;;;;;;;;;;4996211;28;100477;-71
2022/06/14 15:15:22;;;;;;;4.40;1.65;;;;;;;;;;4993547;28;98850;-71
2022/06/14 15:20:37;;;;;;;6.30;1.85;;;;;;;;;;5001930;28;100835;-71
2022/06/14 15:23:04;;;;;;;3.50;1.40;;;;;;;;;;4992026;28;99149;-71
2022/06/14 15:25:31;;;;;;;2.33;1.48;;;;;;;;;;5005469;28;100993;-71
2022/06/14 15:28:10;;;;;;;2.38;1.38;;;;;;;;;;4997607;28;99020;-71
2022/06/14 15:30:41;;;;;;;3.00;1.85;;;;;;;;;;4995810;28;100211;-71
2022/06/14 15:33:20;;;;;;;6.00;1.98;;;;;;;;;;4997948;28;99446;-71
2022/06/14 15:35:52;;;;;;;5.28;1.98;;;;;;;;;;5002515;28;98499;-71